Flight Track Log - Related Links

Times and Time Zones

All times are in EDT time to prevent confusion due to time zone crossing. See the AWE647 flight status page for this flight to view local times or setup timezone preferences in your user account.

Time Position Orientation Groundspeed Altitude Reporting Facility
EDT Latitude Longitude Course Direction KTS MPH feet Rate Location/Type
Sat 07:59:21 AM 42.2036 -83.3556 292° West 146 168 1,300  Level Cleveland Center
Sat 07:59:39 AM 42.1969 -83.3614 213° Southwest 140 161 2,000 1,622 Climbing FAA TRACON SMA TRACON (SMA)
Sat 07:59:58 AM 42.1872 -83.3717 218° Southwest 152 175 2,300 1,200 Climbing FAA TRACON SMA TRACON (SMA)
Sat 08:00:19 AM 42.1739 -83.3864 219° Southwest 181 208 2,800 1,200 Climbing FAA TRACON SMA TRACON (SMA)
Sat 08:00:38 AM 42.1622 -83.3994 220° Southwest 198 228 3,100 2,000 Climbing FAA TRACON SMA TRACON (SMA)
Sat 08:00:58 AM 42.1450 -83.4189 220° Southwest 217 250 4,100 2,927 Climbing FAA TRACON SMA TRACON (SMA)
Sat 08:01:19 AM 42.1306 -83.4353 220° Southwest 223 257 5,100 2,700 Climbing FAA TRACON SMA TRACON (SMA)
Sat 08:01:38 AM 42.1186 -83.4594 236° Southwest 223 257 5,900 2,400 Climbing FAA TRACON SMA TRACON (SMA)
Sat 08:01:59 AM 42.1169 -83.4856 265° West 232 267 6,700 2,700 Climbing FAA TRACON SMA TRACON (SMA)
Sat 08:02:00 AM 42.3055 -83.7606 285° West  Level FlightAware Approximate
Sat 08:02:18 AM 42.1228 -83.5078 289° West 230 265 7,700  Level FAA TRACON SMA TRACON (SMA)
Sat 08:02:38 AM 42.1375 -83.5372 304° West 243 280 8,800 3,073 Climbing FAA TRACON SMA TRACON (SMA)
Sat 08:02:59 AM 42.1519 -83.5625 308° West 246 283 9,800 3,000 Climbing FAA TRACON SMA TRACON (SMA)
Sat 08:03:00 AM 42.3410 -83.8975 292° West  Level FlightAware Approximate
Sat 08:03:18 AM 42.1644 -83.5878 304° West 244 281 10,800  Level FAA TRACON SMA TRACON (SMA)
Sat 08:03:39 AM 42.1775 -83.6186 300° West 274 315 11,300 1,350 Climbing FAA TRACON SMA TRACON (SMA)
Sat 08:03:58 AM 42.1894 -83.6469 300° West 287 330 11,700 750 Climbing FAA TRACON SMA TRACON (SMA)
Sat 08:04:00 AM 42.3814 -84.0322 292° West  Level FlightAware Approximate
Sat 08:04:19 AM 42.2028 -83.6769 301° West 304 350 11,800  Level FAA TRACON SMA TRACON (SMA)
Sat 08:04:38 AM 42.2169 -83.7094 300° West 325 374 12,000 923 Climbing FAA TRACON SMA TRACON (SMA)
Sat 08:04:58 AM 42.2358 -83.7528 300° West 343 395 12,400 1,610 Climbing FAA TRACON SMA TRACON (SMA)
Sat 08:05:19 AM 42.2517 -83.7883 301° West 352 405 13,100 1,950 Climbing FAA TRACON SMA TRACON (SMA)
Sat 08:05:38 AM 42.2675 -83.8242 301° West 357 411 13,700 2,100 Climbing FAA TRACON SMA TRACON (SMA)
Sat 08:05:59 AM 42.2872 -83.8692 301° West 360 414 14,500 2,250 Climbing FAA TRACON SMA TRACON (SMA)
Sat 08:06:18 AM 42.3031 -83.9061 300° West 363 418 15,200 1,765 Climbing FAA TRACON SMA TRACON (SMA)
Sat 08:06:33 AM 42.3133 -83.9361 295° West 355 409 15,500 1,600 Climbing Cleveland Center
Sat 08:07:33 AM 42.3681 -84.0569 302° West 373 429 17,200 1,750 Climbing Cleveland Center
Sat 08:08:33 AM 42.4206 -84.1864 299° West 385 443 19,000 1,782 Climbing Cleveland Center
Sat 08:10:18 AM 42.4347 -84.4489 274° West 402 463 22,100 1,667 Climbing FAA TRACON SMA TRACON (SMA)
Sat 08:10:39 AM 42.4361 -84.4950 272° West 400 460 22,500 600 Climbing FAA TRACON SMA TRACON (SMA)
Sat 08:10:58 AM 42.4364 -84.5064 272° West 400 460 22,500  Level FAA TRACON SMA TRACON (SMA)
Sat 08:11:19 AM 42.4364 -84.5064 144° Southeast 400 460 22,500 1,315 Level FAA TRACON SMA TRACON (SMA)
Sat 08:12:11 AM 42.4419 -84.7364 272° West 409 471 24,100 1,540 Climbing Chicago Center
Sat 08:13:12 AM 42.4453 -84.8931 272° West 416 479 25,400 1,033 Climbing Chicago Center
Sat 08:14:13 AM 42.4486 -85.0500 272° West 417 480 26,200 976 Climbing Chicago Center
Sat 08:15:15 AM 42.4514 -85.2053 271° West 415 478 27,400 1,122 Climbing Chicago Center
Sat 08:16:16 AM 42.4547 -85.3592 272° West 410 472 28,500 1,033 Climbing Chicago Center
Sat 08:17:17 AM 42.4575 -85.5142 271° West 411 473 29,500 1,279 Climbing Chicago Center
Sat 08:18:18 AM 42.4606 -85.6664 272° West 406 467 31,100 1,475 Climbing Chicago Center
Sat 08:19:19 AM 42.4619 -85.8136 271° West 394 453 32,500 1,328 Climbing Chicago Center
Sat 08:20:20 AM 42.4636 -85.9600 271° West 390 449 33,800 1,073 Climbing Chicago Center
Sat 08:21:22 AM 42.4619 -86.1044 269° West 383 441 34,700 732 Climbing Chicago Center
Sat 08:22:23 AM 42.4381 -86.2481 257° West 391 450 35,300 590 Climbing Chicago Center
Sat 08:23:24 AM 42.4092 -86.3911 255° West 393 452 35,900 344 Climbing Chicago Center
Sat 08:24:25 AM 42.3789 -86.5358 254° West 398 458 36,000 49 Climbing Chicago Center
Sat 08:25:27 AM 42.3464 -86.7036 255° West 413 475 36,000  Level Chicago Center
Sat 08:26:28 AM 42.3164 -86.8556 255° West 420 483 36,000  Level Chicago Center
Sat 08:27:29 AM 42.2847 -87.0053 254° West 417 480 36,000  Level Chicago Center
Sat 08:28:31 AM 42.2544 -87.1492 254° West 406 467 36,000  Level Chicago Center
Sat 08:29:32 AM 42.2178 -87.3283 255° West 413 475 36,000  Level Chicago Center
Sat 08:30:33 AM 42.1858 -87.4750 254° West 411 473 36,000  Level Chicago Center
Sat 08:31:35 AM 42.1547 -87.6233 254° West 413 475 36,000  Level Chicago Center
Sat 08:32:36 AM 42.1225 -87.7736 254° West 418 481 36,000 49 Level Chicago Center
Sat 08:33:37 AM 42.0908 -87.9236 254° West 420 483 36,100 49 Climbing Chicago Center
Sat 08:34:39 AM 42.0586 -88.0708 254° West 416 479 36,100 -49 Level Chicago Center
Sat 08:35:40 AM 42.0269 -88.2128 253° West 404 465 36,000 -49 Descending Chicago Center
Sat 08:36:41 AM 41.9897 -88.3836 254° West 401 461 36,000  Level Chicago Center
Sat 08:37:43 AM 41.9583 -88.5264 254° West 402 463 36,000  Level Chicago Center
Sat 08:38:44 AM 41.9269 -88.6669 253° West 398 458 36,000  Level Chicago Center
Sat 08:39:46 AM 41.8947 -88.8097 253° West 402 463 36,000  Level Chicago Center
Sat 08:40:47 AM 41.8628 -88.9522 253° West 402 463 36,000  Level Chicago Center
Sat 08:41:48 AM 41.8300 -89.0953 253° West 404 465 36,000  Level Chicago Center
Sat 08:42:50 AM 41.7906 -89.2694 253° West 408 470 36,000 49 Level Chicago Center
Sat 08:43:51 AM 41.7564 -89.4142 252° West 411 473 36,100  Climbing Chicago Center
Sat 08:44:53 AM 41.7236 -89.5567 253° West 405 466 36,000 -49 Descending Chicago Center
Sat 08:45:54 AM 41.6950 -89.6844 253° West 404 465 36,000  Level Chicago Center
Sat 08:46:55 AM 41.6617 -89.8261 253° West 402 463 36,000  Level Chicago Center
Sat 08:47:57 AM 41.6206 -89.9956 252° West 402 463 36,000  Level Chicago Center
Sat 08:48:58 AM 41.5883 -90.1378 253° West 402 463 36,000  Level Chicago Center
Sat 08:50:00 AM 41.5547 -90.2803 253° West 403 464 36,000  Level Chicago Center
Sat 08:51:01 AM 41.5203 -90.4211 252° West 404 465 36,000  Level Chicago Center
Sat 08:52:02 AM 41.4878 -90.5606 253° West 398 458 36,000  Level Chicago Center
Sat 08:53:04 AM 41.4506 -90.7056 251° West 415 478 36,000  Level Chicago Center
Sat 08:54:05 AM 41.4169 -90.8444 252° West 399 459 36,000  Level Chicago Center
Sat 08:55:07 AM 41.3758 -91.0092 252° West 394 453 36,000  Level Chicago Center
Sat 08:56:08 AM 41.3419 -91.1469 252° West 393 452 36,000  Level Chicago Center
Sat 08:57:10 AM 41.3072 -91.2836 251° West 392 451 36,000  Level Chicago Center
Sat 08:58:11 AM 41.2778 -91.4056 252° West 392 451 36,000  Level Chicago Center
Sat 08:59:12 AM 41.2383 -91.5581 251° West 392 451 36,000  Level Chicago Center
Sat 09:00:14 AM 41.2056 -91.6897 252° West 395 455 36,000  Level Chicago Center
Sat 09:01:15 AM 41.1714 -91.8258 252° West 394 453 36,000  Level Chicago Center
Sat 09:02:17 AM 41.1289 -91.9894 251° West 394 453 36,000  Level Chicago Center
Sat 09:03:18 AM 41.0928 -92.1242 250° West 391 450 36,000  Level Chicago Center
Sat 09:04:20 AM 41.0586 -92.2589 251° West 390 449 36,000  Level Chicago Center
Sat 09:05:21 AM 41.0236 -92.3914 251° West 386 444 36,000  Level Chicago Center
Sat 09:06:23 AM 40.9886 -92.5247 251° West 387 445 36,000  Level Chicago Center
Sat 09:07:24 AM 40.9536 -92.6569 251° West 387 445 36,000  Level Chicago Center
Sat 09:08:26 AM 40.9097 -92.8183 250° West 393 452 36,000  Level Chicago Center
Sat 09:09:27 AM 40.8747 -92.9547 251° West 397 457 36,000  Level Chicago Center
Sat 09:09:50 AM 40.8594 -93.0103 250° West 396 456 36,000  Level Minneapolis Center
Sat 09:10:51 AM 40.8225 -93.1475 250° West 401 461 36,000  Level Minneapolis Center
Sat 09:11:52 AM 40.7850 -93.2836 250° West 400 460 36,000  Level Minneapolis Center
Sat 09:12:53 AM 40.7475 -93.4181 250° West 398 458 36,000  Level Minneapolis Center
Sat 09:13:54 AM 40.7119 -93.5494 250° West 391 450 36,000  Level Minneapolis Center
Sat 09:14:55 AM 40.6750 -93.6842 250° West 394 453 36,000 -49 Level Minneapolis Center
Sat 09:15:56 AM 40.6356 -93.8169 249° West 393 452 35,900  Descending Minneapolis Center
Sat 09:16:57 AM 40.5917 -93.9786 250° West 394 453 36,000 49 Climbing Minneapolis Center
Sat 09:17:59 AM 40.5539 -94.1131 250° West 395 455 36,000 49 Level Minneapolis Center
Sat 09:19:00 AM 40.5167 -94.2497 250° West 398 458 36,100  Climbing Minneapolis Center
Sat 09:20:01 AM 40.4747 -94.3858 248° West 403 464 36,000 -49 Descending Minneapolis Center
Sat 09:21:02 AM 40.4378 -94.5206 250° West 399 459 36,000  Level Minneapolis Center
Sat 09:22:03 AM 40.3944 -94.6700 249° West 400 460 36,000 49 Level Minneapolis Center
Sat 09:23:04 AM 40.3539 -94.8072 249° West 401 461 36,100  Climbing Minneapolis Center
Sat 09:24:05 AM 40.3156 -94.9428 250° West 399 459 36,000 -49 Descending Minneapolis Center
Sat 09:25:06 AM 40.2767 -95.0750 249° West 393 452 36,000 -49 Level Minneapolis Center
Sat 09:26:07 AM 40.2381 -95.2064 249° West 388 447 35,900  Descending Minneapolis Center
Sat 09:27:08 AM 40.1986 -95.3386 249° West 388 447 36,000 49 Climbing Minneapolis Center
Sat 09:28:09 AM 40.1592 -95.4733 249° West 393 452 36,000 49 Level Minneapolis Center
Sat 09:29:10 AM 40.1186 -95.6064 248° West 393 452 36,100  Climbing Minneapolis Center
Sat 09:30:11 AM 40.0789 -95.7389 249° West 392 451 36,000 -49 Descending Minneapolis Center
Sat 09:31:13 AM 40.0381 -95.8736 248° West 396 456 36,000  Level Minneapolis Center
Sat 09:32:14 AM 39.9989 -96.0039 249° West 389 448 36,000  Level Minneapolis Center
Sat 09:33:15 AM 39.9511 -96.1628 249° West 391 450 36,000  Level Minneapolis Center
Sat 09:34:16 AM 39.9114 -96.2953 249° West 392 451 36,000  Level Minneapolis Center
Sat 09:35:22 AM 39.8708 -96.4275 248° West 395 455 36,000  Level Kansas City Center
Sat 09:36:22 AM 39.8294 -96.5603 248° West 396 456 36,000  Level Kansas City Center
Sat 09:37:26 AM 39.7847 -96.7100 249° West 395 455 36,000  Level Kansas City Center
Sat 09:38:26 AM 39.7450 -96.8378 248° West 398 458 36,000  Level Kansas City Center
Sat 09:39:27 AM 39.7042 -96.9683 248° West 400 460 36,000  Level Kansas City Center
Sat 09:40:29 AM 39.6633 -97.0997 248° West 395 455 36,000  Level Kansas City Center
Sat 09:41:31 AM 39.6261 -97.2569 253° West 394 453 36,000  Level Kansas City Center
Sat 09:42:32 AM 39.5950 -97.3939 254° West 394 453 36,000  Level Kansas City Center
Sat 09:43:33 AM 39.5633 -97.5322 254° West 397 457 36,000  Level Kansas City Center
Sat 09:44:33 AM 39.5328 -97.6686 254° West 396 456 36,000  Level Kansas City Center
Sat 09:45:35 AM 39.5006 -97.8072 253° West 398 458 36,000  Level Kansas City Center
Sat 09:46:38 AM 39.4700 -97.9414 254° West 396 456 36,000  Level Kansas City Center
Sat 09:47:39 AM 39.4333 -98.0922 253° West 394 453 36,000  Level Kansas City Center
Sat 09:48:40 AM 39.4033 -98.2322 255° West 393 452 36,000  Level Kansas City Center
Sat 09:49:40 AM 39.3756 -98.3519 253° West 395 455 36,000  Level Kansas City Center
Sat 09:50:42 AM 39.3433 -98.4894 253° West 398 458 36,000  Level Kansas City Center
Sat 09:51:55 AM 39.2978 -98.6833 253° West 400 460 36,000  Level Denver Center
Sat 09:52:56 AM 39.2650 -98.8219 253° West 403 464 36,000  Level Denver Center
Sat 09:53:57 AM 39.2381 -98.9331 253° West 405 466 36,000  Level Denver Center
Sat 09:54:58 AM 39.2000 -99.0908 253° West 404 465 36,000  Level Denver Center
Sat 09:55:59 AM 39.1667 -99.2328 253° West 410 472 36,000  Level Denver Center
Sat 09:57:00 AM 39.1289 -99.3889 253° West 410 472 36,000  Level Denver Center
Sat 09:58:01 AM 39.0964 -99.5219 253° West 407 468 36,000  Level Denver Center
Sat 09:59:02 AM 39.0631 -99.6542 252° West 406 467 36,000  Level Denver Center
Sat 10:00:03 AM 39.0258 -99.8094 253° West 408 470 36,000  Level Denver Center
Sat 10:01:04 AM 38.9931 -99.9406 252° West 406 467 36,000  Level Denver Center
Sat 10:02:06 AM 38.9547 -100.0939 252° West 404 465 36,000  Level Denver Center
Sat 10:03:06 AM 38.9222 -100.2244 252° West 403 464 36,000  Level Denver Center
Sat 10:04:07 AM 38.8889 -100.3544 252° West 402 463 36,000  Level Denver Center
Sat 10:05:09 AM 38.8494 -100.5061 252° West 402 463 36,000  Level Denver Center
Sat 10:06:10 AM 38.8169 -100.6400 253° West 410 472 36,000  Level Denver Center
Sat 10:07:11 AM 38.7825 -100.7725 252° West 411 473 36,000  Level Denver Center
Sat 10:08:12 AM 38.7428 -100.9258 252° West 406 467 36,000  Level Denver Center
Sat 10:09:25 AM 38.6967 -101.1017 251° West 409 471 36,000  Level Denver Center
Sat 10:10:27 AM 38.6625 -101.2325 252° West 407 468 36,000  Level Denver Center
Sat 10:11:28 AM 38.6283 -101.3642 252° West 407 468 36,000  Level Denver Center
Sat 10:12:29 AM 38.5878 -101.5167 251° West 408 470 36,000  Level Denver Center
Sat 10:13:30 AM 38.5522 -101.6447 250° West 403 464 36,000  Level Denver Center
Sat 10:14:32 AM 38.5017 -101.7911 246° West 404 465 36,000  Level Denver Center
Sat 10:15:33 AM 38.4575 -101.9161 246° West 405 466 36,000  Level Denver Center
Sat 10:16:34 AM 38.4131 -102.0419 246° West 408 470 36,000  Level Denver Center
Sat 10:17:36 AM 38.3611 -102.1897 246° West 410 472 36,000  Level Denver Center
Sat 10:18:37 AM 38.3161 -102.3164 246° West 411 473 36,000  Level Denver Center
Sat 10:19:39 AM 38.2622 -102.4644 245° Southwest 413 475 36,000  Level Denver Center
Sat 10:20:40 AM 38.2178 -102.5917 246° West 413 475 36,000  Level Denver Center
Sat 10:21:42 AM 38.1711 -102.7178 245° Southwest 413 475 36,000  Level Denver Center
Sat 10:22:43 AM 38.1175 -102.8647 245° Southwest 411 473 36,000  Level Denver Center
Sat 10:23:45 AM 38.0731 -102.9894 246° West 407 468 36,000  Level Denver Center
Sat 10:24:46 AM 38.0225 -103.1269 245° Southwest 410 472 36,000  Level Denver Center
Sat 10:25:48 AM 37.9681 -103.2753 245° Southwest 414 476 36,000  Level Denver Center
Sat 10:26:49 AM 37.9211 -103.4014 245° Southwest 415 478 36,000  Level Denver Center
Sat 10:27:51 AM 37.8747 -103.5283 245° Southwest 415 478 36,000  Level Denver Center
Sat 10:28:52 AM 37.8194 -103.6772 245° Southwest 419 482 36,000  Level Denver Center
Sat 10:29:54 AM 37.7719 -103.8039 245° Southwest 420 483 36,000  Level Denver Center
Sat 10:30:56 AM 37.7161 -103.9506 244° Southwest 418 481 36,000  Level Denver Center
Sat 10:31:57 AM 37.6686 -104.0747 244° Southwest 417 480 36,000  Level Denver Center
Sat 10:32:59 AM 37.6133 -104.2194 244° Southwest 418 481 36,000  Level Denver Center
Sat 10:34:00 AM 37.5653 -104.3469 245° Southwest 423 487 36,000 49 Level Denver Center
Sat 10:35:02 AM 37.5086 -104.4950 244° Southwest 422 486 36,100  Climbing Denver Center
Sat 10:36:04 AM 37.4597 -104.6222 244° Southwest 424 488 36,000 -48 Descending Denver Center
Sat 10:37:06 AM 37.4014 -104.7703 244° Southwest 422 486 36,000  Level Denver Center
Sat 10:38:07 AM 37.3547 -104.8964 245° Southwest 418 481 36,000  Level Denver Center
Sat 10:39:09 AM 37.3039 -105.0206 243° Southwest 417 480 36,000  Level Denver Center
Sat 10:40:11 AM 37.2467 -105.1675 244° Southwest 419 482 36,000  Level Denver Center
Sat 10:41:12 AM 37.1978 -105.2931 244° Southwest 418 481 36,000  Level Denver Center
Sat 10:42:14 AM 37.1406 -105.4381 244° Southwest 418 481 36,000  Level Denver Center
Sat 10:43:16 AM 37.0911 -105.5639 244° Southwest 419 482 36,000 48 Level Denver Center
Sat 10:44:18 AM 37.0317 -105.7117 243° Southwest 424 488 36,100  Climbing Denver Center
Sat 10:45:19 AM 36.9836 -105.8358 244° Southwest 417 480 36,000 -49 Descending Denver Center
Sat 10:46:21 AM 36.9244 -105.9800 243° Southwest 417 480 36,000  Level Denver Center
Sat 10:47:23 AM 36.8747 -106.1044 243° Southwest 418 481 36,000  Level Denver Center
Sat 10:48:25 AM 36.8244 -106.2300 243° Southwest 420 483 36,000  Level Denver Center
Sat 10:49:27 AM 36.7650 -106.3739 243° Southwest 419 482 36,000  Level Denver Center
Sat 10:50:28 AM 36.7169 -106.4911 243° Southwest 413 475 36,000  Level Denver Center
Sat 10:51:30 AM 36.6572 -106.6400 243° Southwest 415 478 36,000  Level Denver Center
Sat 10:52:32 AM 36.6067 -106.7617 243° Southwest 413 475 36,000  Level Denver Center
Sat 10:53:34 AM 36.5492 -106.9033 243° Southwest 412 474 36,000  Level Denver Center
Sat 10:54:36 AM 36.4994 -107.0225 243° Southwest 408 470 36,000  Level Denver Center
Sat 10:55:38 AM 36.4494 -107.1414 242° Southwest 406 467 36,000  Level Denver Center
Sat 10:56:39 AM 36.3928 -107.2794 243° Southwest 403 464 36,000  Level Denver Center
Sat 10:57:41 AM 36.3431 -107.3975 242° Southwest 403 464 36,000  Level Denver Center
Sat 10:58:43 AM 36.2858 -107.5356 243° Southwest 403 464 36,000  Level Denver Center
Sat 10:59:44 AM 36.2350 -107.6539 242° Southwest 402 463 36,000  Level Albuquerque Center
Sat 11:00:46 AM 36.1650 -107.7814 236° Southwest 402 463 36,000  Level Albuquerque Center
Sat 11:01:47 AM 36.0989 -107.8869 232° Southwest 403 464 36,000  Level Albuquerque Center
Sat 11:02:49 AM 36.0106 -107.9733 218° Southwest 424 488 36,000  Level Albuquerque Center
Sat 11:03:51 AM 35.8681 -108.0047 190° South 458 527 36,000  Level Albuquerque Center
Sat 11:04:53 AM 35.7444 -108.0297 189° South 464 534 36,000  Level Albuquerque Center
Sat 11:05:55 AM 35.6014 -108.0603 190° South 465 535 36,000  Level Albuquerque Center
Sat 11:06:57 AM 35.4783 -108.0858 190° South 465 535 36,000  Level Albuquerque Center
Sat 11:07:58 AM 35.3553 -108.1103 189° South 465 535 36,000  Level Albuquerque Center
Sat 11:09:00 AM 35.2103 -108.1397 189° South 469 540 36,000  Level Albuquerque Center
Sat 11:10:02 AM 35.0981 -108.1889 200° South 459 528 36,000  Level Albuquerque Center
Sat 11:11:04 AM 34.9886 -108.2806 214° Southwest 431 496 36,000  Level Albuquerque Center
Sat 11:12:06 AM 34.9497 -108.3967 248° West 398 458 36,000  Level Albuquerque Center
Sat 11:13:08 AM 34.9253 -108.5419 258° West 391 450 36,000  Level Albuquerque Center
Sat 11:14:10 AM 34.9072 -108.6592 259° West 376 433 36,000  Level Albuquerque Center
Sat 11:15:12 AM 34.8858 -108.7922 259° West 362 417 36,000  Level Albuquerque Center
Sat 11:16:14 AM 34.8675 -108.9069 259° West 361 415 36,000  Level Albuquerque Center
Sat 11:17:16 AM 34.8489 -109.0206 259° West 358 412 36,000  Level Albuquerque Center
Sat 11:18:18 AM 34.8269 -109.1500 258° West 352 405 36,000  Level Albuquerque Center
Sat 11:19:20 AM 34.8092 -109.2669 260° West 359 413 36,000  Level Albuquerque Center
Sat 11:20:22 AM 34.7858 -109.4039 258° West 368 423 36,000  Level Albuquerque Center
Sat 11:21:24 AM 34.7664 -109.5197 258° West 366 421 36,000  Level Albuquerque Center
Sat 11:22:26 AM 34.7436 -109.6544 258° West 364 419 36,000  Level Albuquerque Center
Sat 11:23:28 AM 34.7233 -109.7675 258° West 360 414 36,000  Level Albuquerque Center
Sat 11:24:30 AM 34.6947 -109.8978 255° West 357 411 36,000  Level Albuquerque Center
Sat 11:25:32 AM 34.6533 -110.0061 245° Southwest 368 423 36,000  Level Albuquerque Center
Sat 11:26:33 AM 34.6133 -110.1167 246° West 370 426 36,000 -390 Level Albuquerque Center
Sat 11:27:35 AM 34.5681 -110.2458 247° West 371 427 35,200 -1,935 Descending Albuquerque Center
Sat 11:28:37 AM 34.5239 -110.3517 243° Southwest 369 425 32,000 -2,371 Descending Albuquerque Center
Sat 11:29:39 AM 34.4792 -110.4742 246° West 378 435 30,300 -1,839 Descending Albuquerque Center
Sat 11:30:41 AM 34.4397 -110.5844 247° West 364 419 28,200 -2,032 Descending Albuquerque Center
Sat 11:31:43 AM 34.3989 -110.6886 245° Southwest 348 400 26,100 -1,984 Descending Albuquerque Center
Sat 11:32:45 AM 34.3544 -110.7917 242° Southwest 348 400 24,100 -1,742 Descending Albuquerque Center
Sat 11:33:47 AM 34.2758 -110.8989 228° Southwest 358 412 22,500 -1,403 Descending Albuquerque Center
Sat 11:34:49 AM 34.2089 -110.9853 227° Southwest 355 409 21,200 -1,220 Descending Albuquerque Center
Sat 11:35:50 AM 34.1419 -111.0706 227° Southwest 352 405 20,000 -1,171 Descending Albuquerque Center
Sat 11:36:52 AM 34.0772 -111.1536 227° Southwest 344 396 18,800 -1,210 Descending Albuquerque Center
Sat 11:37:54 AM 34.0136 -111.2347 227° Southwest 336 387 17,500 -1,210 Descending Albuquerque Center
Sat 11:38:56 AM 33.9508 -111.3156 227° Southwest 330 380 16,300 -1,113 Descending Albuquerque Center
Sat 11:39:58 AM 33.8922 -111.3903 227° Southwest 309 356 15,200 -1,171 Descending Albuquerque Center
Sat 11:40:59 AM 33.8386 -111.4872 236° Southwest 290 334 13,900 -1,317 Descending Albuquerque Center
Sat 11:42:01 AM 33.7956 -111.5681 237° Southwest 286 329 12,500 -1,403 Descending Albuquerque Center
Sat 11:43:03 AM 33.7511 -111.6525 238° Southwest 296 341 11,000 -1,317 Descending Albuquerque Center
Sat 11:44:04 AM 33.7056 -111.7378 237° Southwest 300 345 9,800 -780 Descending Albuquerque Center
Sat 11:45:06 AM 33.6611 -111.8186 237° Southwest 290 334 9,400 -387 Descending Albuquerque Center
Sat 11:46:08 AM 33.6175 -111.8972 236° Southwest 283 326 9,000 -537 Descending Albuquerque Center
Sat 11:47:09 AM 33.5806 -111.9667 237° Southwest 251 289 8,300 -780 Descending Albuquerque Center
Sat 11:48:11 AM 33.5458 -112.0347 239° Southwest 241 277 7,400 -581 Descending Albuquerque Center
Sat 11:49:13 AM 33.5269 -112.1019 251° West 212 244 7,100 -634 Descending Albuquerque Center
Sat 11:50:14 AM 33.5258 -112.1628 269° West 184 212 6,100 -1,366 Descending Albuquerque Center
Sat 11:51:16 AM 33.4694 -112.1819 196° South 194 223 4,300 -1,548 Descending Albuquerque Center
Sat 11:52:18 AM 33.4408 -112.1311 124° Southeast 193 222 2,900 -1,355 Descending Albuquerque Center

Login

Don't have an account? Register now (free) for customized features, flight alerts, and more!